Archival Weather

Norman Y Mineta San Jose Intl

San Jose, California (KSJC)

Report from: Thursday, February 8, 2024 8:53 AM PST
Current time: Friday, June 14, 2024 6:01 AM PDT

Current weather – Weather history – Daily summaries
Weather forecast

Temperature7.8°C (46.0°F)
Wind chill6.2°C (43.1°F)
Dew point3.9°C (39.0°F)
Winds 5 kts (2.6 m/s, 5.8 mph) South-Southeast (150°)
Visibility10 mi. (16.1 km)
Clouds Few clouds 4,200 ft. (1,280 m)
Few clouds 5,500 ft. (1,676 m)
Altimeter30.01 in.Hg (1016 mB)
Relative humidity76 %
Density altitude-846 ft. (-258 m)
Sea-level pressure101.6 kPa (1016 mB, 30.01 in.Hg)
Remarks Automated weather observing station with precipitation discriminator
Flight conditions Visual Meteorological Conditions
Raw dataKSJC 081653Z 15005KT 10SM FEW042 FEW055 08/04 A3001 RMK AO2 SLP162 T00780039
An error has occurred. This application may no longer respond until reloaded. Reload 🗙